Triddlers

Vá diretamente à ID do puzzle

Selecione o puzzle por:
Resolvidos Question organizar por
Mostrar mais filtros >>>
puzzles por página
Página nº de 5
Resultado: 87 de 87
ID Descrição Autor Data Tamanho Pontos Popularidade Tempo Médio Resolvidos
14526 Mushroom abuelo52 14-01-2017 (5+5)x(5+5)x5 83 62,70% 00:02:14
14488 Snowman ellyf 24-12-2016 (20+16)x(14+18)x6 2.675 82,96% 00:29:36
14482 Swedish Chef hertseltsur 24-12-2016 (25+25)x(25+25)x2 632.770 79,54% 01:38:53
14483 Bunsen Honeydew hertseltsur 24-12-2016 (23+27)x(25+19)x2 323.419 63,89% 01:51:29
14484 Floyd Pepper hertseltsur 24-12-2016 (25+25)x(25+25)x2 317.946 70,00% 01:51:16
14485 Sam the Eagle hertseltsur 24-12-2016 (25+25)x(25+25)x2 248.165 78,12% 00:48:18
14486 Brad Pitt Caricature hertseltsur 24-12-2016 (21+27)x(23+27)x2 223.475 42,50% 01:10:49
14487 Burt Reynolds hertseltsur 24-12-2016 (25+25)x(25+25)x2 156.581 75,00% 00:42:00
14489 Lisa Simpson hertseltsur 01-01-2017 (25+25)x(25+25)x2 645.762 83,66% 00:43:50
14490 Moleman Hans hertseltsur 01-01-2017 (25+25)x(25+25)x2 575.052 79,17% 00:57:09
14491 Moe Szyslak hertseltsur 01-01-2017 (25+25)x(25+25)x2 536.950 64,58% 00:53:17
14492 Barney Gumble hertseltsur 01-01-2017 (25+25)x(25+25)x2 498.522 80,36% 01:12:27
14493 Chief Wiggum hertseltsur 01-01-2017 (25+25)x(25+25)x2 478.255 79,54% 00:53:01
14494 Patty Bouvier hertseltsur 01-01-2017 (25+25)x(25+25)x2 475.869 63,33% 00:38:19
14495 Seymour Skinner hertseltsur 01-01-2017 (25+25)x(25+25)x2 465.921 68,33% 00:39:46
14496 Nelson Munch hertseltsur 01-01-2017 (25+25)x(25+25)x2 449.886 68,33% 00:47:37
14497 Krusty the Clown hertseltsur 01-01-2017 (25+25)x(25+25)x2 434.033 65,00% 00:36:52
14498 Abraham Simpson hertseltsur 01-01-2017 (25+25)x(25+25)x2 422.187 79,17% 01:07:48
14499 Edna Krabappel hertseltsur 01-01-2017 (25+25)x(25+25)x2 417.619 70,83% 01:11:02
14500 Ned Flanders hertseltsur 01-01-2017 (25+25)x(25+25)x2 413.646 61,11% 00:52:22
puzzles por página
Página nº de 5
Resultado: 87 de 87